sensor_id;sensor_type;location;lat;lon;timestamp;pressure;altitude;pressure_sealevel;temperature;humidity
61109;BME280;46995;55.740;37.402;2023-07-13T00:02:24;98510.88;;;12.43;78.28
61109;BME280;46995;55.740;37.402;2023-07-13T00:04:50;98564.13;;;12.72;78.66
61109;BME280;46995;55.740;37.402;2023-07-13T00:07:16;98538.00;;;12.53;78.61
61109;BME280;46995;55.740;37.402;2023-07-13T00:09:46;98544.97;;;12.54;78.73
61109;BME280;46995;55.740;37.402;2023-07-13T00:12:45;98602.53;;;12.85;78.83
61109;BME280;46995;55.740;37.402;2023-07-13T00:15:18;98573.09;;;12.71;78.70
61109;BME280;46995;55.740;37.402;2023-07-13T00:17:50;98538.03;;;12.45;78.87
61109;BME280;46995;55.740;37.402;2023-07-13T00:20:16;98524.47;;;12.40;78.74
61109;BME280;46995;55.740;37.402;2023-07-13T00:22:42;98506.94;;;12.31;78.54
61109;BME280;46995;55.740;37.402;2023-07-13T00:25:10;98561.66;;;12.71;78.63
61109;BME280;46995;55.740;37.402;2023-07-13T00:27:36;98578.69;;;12.77;78.74
61109;BME280;46995;55.740;37.402;2023-07-13T00:30:02;98526.94;;;12.50;78.59
61109;BME280;46995;55.740;37.402;2023-07-13T00:32:31;98578.50;;;12.86;78.69
61109;BME280;46995;55.740;37.402;2023-07-13T00:34:59;98534.69;;;12.51;78.61
61109;BME280;46995;55.740;37.402;2023-07-13T00:37:26;98592.59;;;12.87;78.56
61109;BME280;46995;55.740;37.402;2023-07-13T00:39:52;98566.44;;;12.76;78.61
61109;BME280;46995;55.740;37.402;2023-07-13T00:42:18;98494.69;;;12.38;78.54
61109;BME280;46995;55.740;37.402;2023-07-13T00:46:18;98578.31;;;12.88;78.99
61109;BME280;46995;55.740;37.402;2023-07-13T00:47:54;98535.38;;;12.53;78.80
61109;BME280;46995;55.740;37.402;2023-07-13T00:50:22;98539.16;;;12.59;78.59
61109;BME280;46995;55.740;37.402;2023-07-13T00:52:52;98542.47;;;12.61;78.49
61109;BME280;46995;55.740;37.402;2023-07-13T00:55:20;98531.72;;;12.54;78.55
61109;BME280;46995;55.740;37.402;2023-07-13T00:57:48;98578.19;;;12.81;78.36
61109;BME280;46995;55.740;37.402;2023-07-13T01:00:14;98536.88;;;12.56;78.58
61109;BME280;46995;55.740;37.402;2023-07-13T01:02:44;98547.25;;;12.65;78.58
61109;BME280;46995;55.740;37.402;2023-07-13T01:05:13;98583.28;;;12.91;78.71
61109;BME280;46995;55.740;37.402;2023-07-13T01:07:41;98578.81;;;12.91;78.82
61109;BME280;46995;55.740;37.402;2023-07-13T01:10:08;98527.56;;;12.60;78.39
61109;BME280;46995;55.740;37.402;2023-07-13T01:12:34;98526.75;;;12.59;78.73
61109;BME280;46995;55.740;37.402;2023-07-13T01:15:00;98530.69;;;12.63;78.79
61109;BME280;46995;55.740;37.402;2023-07-13T01:17:31;98544.59;;;12.73;78.82
61109;BME280;46995;55.740;37.402;2023-07-13T01:19:58;98532.53;;;12.63;78.86
61109;BME280;46995;55.740;37.402;2023-07-13T01:22:25;98559.81;;;12.80;78.69
61109;BME280;46995;55.740;37.402;2023-07-13T01:24:54;98515.16;;;12.52;78.90
61109;BME280;46995;55.740;37.402;2023-07-13T01:27:23;98532.69;;;12.69;78.91
61109;BME280;46995;55.740;37.402;2023-07-13T01:29:53;98548.22;;;12.72;78.80
61109;BME280;46995;55.740;37.402;2023-07-13T01:32:31;98565.59;;;12.83;78.81
61109;BME280;46995;55.740;37.402;2023-07-13T01:34:58;98528.41;;;12.60;79.05
61109;BME280;46995;55.740;37.402;2023-07-13T01:37:25;98549.22;;;12.80;78.76
61109;BME280;46995;55.740;37.402;2023-07-13T01:39:52;98529.72;;;12.64;78.90
61109;BME280;46995;55.740;37.402;2023-07-13T01:42:18;98522.75;;;12.63;78.72
61109;BME280;46995;55.740;37.402;2023-07-13T01:44:44;98485.72;;;12.47;78.81
61109;BME280;46995;55.740;37.402;2023-07-13T01:47:10;98456.97;;;12.28;78.83
61109;BME280;46995;55.740;37.402;2023-07-13T01:49:36;98488.88;;;12.51;78.93
61109;BME280;46995;55.740;37.402;2023-07-13T01:52:03;98498.94;;;12.55;78.98
61109;BME280;46995;55.740;37.402;2023-07-13T01:54:30;98526.72;;;12.76;78.85
61109;BME280;46995;55.740;37.402;2023-07-13T01:56:56;98552.31;;;12.91;78.90
61109;BME280;46995;55.740;37.402;2023-07-13T01:59:23;98485.41;;;12.50;78.87
61109;BME280;46995;55.740;37.402;2023-07-13T02:01:49;98523.06;;;12.77;78.86
61109;BME280;46995;55.740;37.402;2023-07-13T02:04:15;98538.75;;;12.86;79.07
61109;BME280;46995;55.740;37.402;2023-07-13T02:06:41;98467.19;;;12.47;78.93
61109;BME280;46995;55.740;37.402;2023-07-13T02:09:07;98494.97;;;12.59;79.11
61109;BME280;46995;55.740;37.402;2023-07-13T02:11:33;98494.97;;;12.59;78.71
61109;BME280;46995;55.740;37.402;2023-07-13T02:14:02;98521.88;;;12.79;79.02
61109;BME280;46995;55.740;37.402;2023-07-13T02:16:32;98543.84;;;12.96;79.02
61109;BME280;46995;55.740;37.402;2023-07-13T02:18:58;98493.63;;;12.71;78.94
61109;BME280;46995;55.740;37.402;2023-07-13T02:21:27;98526.00;;;12.90;78.80
61109;BME280;46995;55.740;37.402;2023-07-13T02:23:52;98497.56;;;12.67;78.65
61109;BME280;46995;55.740;37.402;2023-07-13T02:26:19;98502.88;;;12.76;78.76
61109;BME280;46995;55.740;37.402;2023-07-13T02:28:45;98469.16;;;12.53;78.64
61109;BME280;46995;55.740;37.402;2023-07-13T02:31:14;98539.53;;;13.03;78.82
61109;BME280;46995;55.740;37.402;2023-07-13T02:33:40;98543.81;;;13.04;78.77
61109;BME280;46995;55.740;37.402;2023-07-13T02:36:07;98466.31;;;12.63;78.91
61109;BME280;46995;55.740;37.402;2023-07-13T02:38:34;98473.72;;;12.76;78.46
61109;BME280;46995;55.740;37.402;2023-07-13T02:41:04;98465.09;;;12.73;78.59
61109;BME280;46995;55.740;37.402;2023-07-13T02:43:30;98481.28;;;12.87;78.35
61109;BME280;46995;55.740;37.402;2023-07-13T02:45:56;98502.59;;;13.01;78.63
61109;BME280;46995;55.740;37.402;2023-07-13T02:48:22;98522.75;;;13.19;78.46
61109;BME280;46995;55.740;37.402;2023-07-13T02:50:47;98465.72;;;12.84;78.49
61109;BME280;46995;55.740;37.402;2023-07-13T02:53:13;98450.88;;;12.74;78.23
61109;BME280;46995;55.740;37.402;2023-07-13T02:55:39;98504.91;;;13.12;78.25
61109;BME280;46995;55.740;37.402;2023-07-13T02:58:07;98479.44;;;12.95;78.11
61109;BME280;46995;55.740;37.402;2023-07-13T03:00:33;98451.47;;;12.85;78.14
61109;BME280;46995;55.740;37.402;2023-07-13T03:02:59;98466.69;;;12.91;78.06
61109;BME280;46995;55.740;37.402;2023-07-13T03:05:26;98491.31;;;13.07;78.31
61109;BME280;46995;55.740;37.402;2023-07-13T03:07:52;98463.06;;;12.92;78.09
61109;BME280;46995;55.740;37.402;2023-07-13T03:10:21;98453.59;;;12.89;78.08
61109;BME280;46995;55.740;37.402;2023-07-13T03:12:49;98470.44;;;13.12;78.13
61109;BME280;46995;55.740;37.402;2023-07-13T03:15:23;98476.66;;;13.20;77.89
61109;BME280;46995;55.740;37.402;2023-07-13T03:17:51;98460.28;;;13.16;77.82
61109;BME280;46995;55.740;37.402;2023-07-13T03:20:17;98498.91;;;13.41;77.65
61109;BME280;46995;55.740;37.402;2023-07-13T03:22:43;98454.00;;;13.17;77.43
61109;BME280;46995;55.740;37.402;2023-07-13T03:25:09;98449.72;;;13.08;77.74
61109;BME280;46995;55.740;37.402;2023-07-13T03:27:37;98478.09;;;13.30;77.43
61109;BME280;46995;55.740;37.402;2023-07-13T03:30:05;98475.97;;;13.26;77.37
61109;BME280;46995;55.740;37.402;2023-07-13T03:32:32;98475.13;;;13.33;77.27
61109;BME280;46995;55.740;37.402;2023-07-13T03:34:58;98522.69;;;13.57;77.42
61109;BME280;46995;55.740;37.402;2023-07-13T03:37:24;98513.75;;;13.58;77.17
61109;BME280;46995;55.740;37.402;2023-07-13T03:39:51;98476.56;;;13.36;77.09
61109;BME280;46995;55.740;37.402;2023-07-13T03:42:19;98466.47;;;13.39;77.11
61109;BME280;46995;55.740;37.402;2023-07-13T03:44:45;98513.50;;;13.68;77.06
61109;BME280;46995;55.740;37.402;2023-07-13T03:47:16;98482.91;;;13.57;76.77
61109;BME280;46995;55.740;37.402;2023-07-13T03:49:44;98493.63;;;13.64;76.69
61109;BME280;46995;55.740;37.402;2023-07-13T03:52:11;98498.78;;;13.66;76.69
61109;BME280;46995;55.740;37.402;2023-07-13T03:54:37;98539.69;;;13.94;76.57
61109;BME280;46995;55.740;37.402;2023-07-13T03:57:04;98534.38;;;13.94;76.53
61109;BME280;46995;55.740;37.402;2023-07-13T03:59:33;98495.09;;;13.67;76.48
61109;BME280;46995;55.740;37.402;2023-07-13T04:02:01;98462.09;;;13.46;76.85
61109;BME280;46995;55.740;37.402;2023-07-13T04:04:27;98534.44;;;13.86;76.98
61109;BME280;46995;55.740;37.402;2023-07-13T04:06:53;98497.66;;;13.60;76.70
61109;BME280;46995;55.740;37.402;2023-07-13T04:09:19;98478.50;;;13.50;77.01
61109;BME280;46995;55.740;37.402;2023-07-13T04:11:46;98484.38;;;13.60;76.96
61109;BME280;46995;55.740;37.402;2023-07-13T04:14:12;98467.69;;;13.51;76.65
61109;BME280;46995;55.740;37.402;2023-07-13T04:16:38;98466.97;;;13.57;76.61
61109;BME280;46995;55.740;37.402;2023-07-13T04:19:04;98479.19;;;13.67;76.40
61109;BME280;46995;55.740;37.402;2023-07-13T04:21:30;98497.63;;;13.83;76.65
61109;BME280;46995;55.740;37.402;2023-07-13T04:23:57;98500.03;;;13.92;76.31
61109;BME280;46995;55.740;37.402;2023-07-13T04:26:23;98483.19;;;13.85;76.00
61109;BME280;46995;55.740;37.402;2023-07-13T04:28:50;98493.09;;;13.91;76.13
61109;BME280;46995;55.740;37.402;2023-07-13T04:31:16;98475.06;;;13.87;76.18
61109;BME280;46995;55.740;37.402;2023-07-13T04:33:42;98515.22;;;14.21;75.96
61109;BME280;46995;55.740;37.402;2023-07-13T04:36:09;98507.94;;;14.23;75.80
61109;BME280;46995;55.740;37.402;2023-07-13T04:38:35;98470.91;;;14.07;75.56
61109;BME280;46995;55.740;37.402;2023-07-13T04:41:04;98522.28;;;14.52;75.10
61109;BME280;46995;55.740;37.402;2023-07-13T04:43:31;98487.25;;;14.33;74.92
61109;BME280;46995;55.740;37.402;2023-07-13T04:45:57;98530.81;;;14.76;74.85
61109;BME280;46995;55.740;37.402;2023-07-13T04:48:27;98487.47;;;14.61;74.09
61109;BME280;46995;55.740;37.402;2023-07-13T04:50:57;98518.81;;;14.95;73.51
61109;BME280;46995;55.740;37.402;2023-07-13T04:53:24;98526.22;;;15.00;73.60
61109;BME280;46995;55.740;37.402;2023-07-13T04:55:50;98516.16;;;14.95;73.74
61109;BME280;46995;55.740;37.402;2023-07-13T04:58:16;98486.06;;;14.95;73.41
61109;BME280;46995;55.740;37.402;2023-07-13T05:00:42;98496.59;;;15.17;72.86
61109;BME280;46995;55.740;37.402;2023-07-13T05:03:08;98494.72;;;15.33;72.16
61109;BME280;46995;55.740;37.402;2023-07-13T05:05:34;98473.22;;;15.34;72.11
61109;BME280;46995;55.740;37.402;2023-07-13T05:08:00;98474.69;;;15.37;71.57
61109;BME280;46995;55.740;37.402;2023-07-13T05:10:26;98534.97;;;15.80;71.58
61109;BME280;46995;55.740;37.402;2023-07-13T05:12:52;98545.63;;;15.80;71.38
61109;BME280;46995;55.740;37.402;2023-07-13T05:15:20;98476.09;;;15.33;71.46
61109;BME280;46995;55.740;37.402;2023-07-13T05:17:47;98512.38;;;15.40;71.73
61109;BME280;46995;55.740;37.402;2023-07-13T05:20:13;98498.38;;;15.32;71.93
61109;BME280;46995;55.740;37.402;2023-07-13T05:22:40;98474.50;;;15.17;71.77
61109;BME280;46995;55.740;37.402;2023-07-13T05:25:07;98497.34;;;15.47;71.69
61109;BME280;46995;55.740;37.402;2023-07-13T05:27:34;98509.44;;;15.50;71.63
61109;BME280;46995;55.740;37.402;2023-07-13T05:30:02;98475.78;;;15.42;70.96
61109;BME280;46995;55.740;37.402;2023-07-13T05:32:31;98490.97;;;15.63;70.84
61109;BME280;46995;55.740;37.402;2023-07-13T05:34:58;98505.31;;;15.83;70.61
61109;BME280;46995;55.740;37.402;2023-07-13T05:37:23;98480.59;;;15.89;69.96
61109;BME280;46995;55.740;37.402;2023-07-13T05:39:49;98526.25;;;16.35;69.32
61109;BME280;46995;55.740;37.402;2023-07-13T05:42:15;98476.97;;;16.25;69.15
61109;BME280;46995;55.740;37.402;2023-07-13T05:44:41;98494.91;;;16.37;68.39
61109;BME280;46995;55.740;37.402;2023-07-13T05:47:07;98474.88;;;16.20;68.38
61109;BME280;46995;55.740;37.402;2023-07-13T05:49:33;98462.41;;;16.21;67.96
61109;BME280;46995;55.740;37.402;2023-07-13T05:51:58;98465.91;;;16.28;67.80
61109;BME280;46995;55.740;37.402;2023-07-13T05:54:24;98464.75;;;16.37;66.96
61109;BME280;46995;55.740;37.402;2023-07-13T05:56:50;98509.78;;;16.53;67.02
61109;BME280;46995;55.740;37.402;2023-07-13T05:59:17;98487.75;;;16.38;67.23
61109;BME280;46995;55.740;37.402;2023-07-13T06:01:43;98455.25;;;16.28;66.85
61109;BME280;46995;55.740;37.402;2023-07-13T06:04:09;98496.19;;;16.69;66.94
61109;BME280;46995;55.740;37.402;2023-07-13T06:06:34;98457.72;;;16.57;66.17
61109;BME280;46995;55.740;37.402;2023-07-13T06:09:00;98459.88;;;16.68;65.90
61109;BME280;46995;55.740;37.402;2023-07-13T06:11:27;98479.63;;;16.87;65.20
61109;BME280;46995;55.740;37.402;2023-07-13T06:13:56;98490.81;;;17.04;64.63
61109;BME280;46995;55.740;37.402;2023-07-13T06:16:22;98501.06;;;17.07;64.79
61109;BME280;46995;55.740;37.402;2023-07-13T06:18:48;98455.81;;;16.85;64.79
61109;BME280;46995;55.740;37.402;2023-07-13T06:21:20;98462.84;;;16.93;63.54
61109;BME280;46995;55.740;37.402;2023-07-13T06:23:48;98474.81;;;17.10;64.46
61109;BME280;46995;55.740;37.402;2023-07-13T06:26:14;98453.06;;;17.13;64.58
61109;BME280;46995;55.740;37.402;2023-07-13T06:28:40;98439.72;;;17.13;64.07
61109;BME280;46995;55.740;37.402;2023-07-13T06:31:07;98487.28;;;17.51;63.51
61109;BME280;46995;55.740;37.402;2023-07-13T06:33:33;98498.22;;;17.62;63.01
61109;BME280;46995;55.740;37.402;2023-07-13T06:36:00;98479.09;;;17.65;63.04
61109;BME280;46995;55.740;37.402;2023-07-13T06:38:26;98433.25;;;17.55;63.00
61109;BME280;46995;55.740;37.402;2023-07-13T06:40:52;98449.75;;;17.65;62.97
61109;BME280;46995;55.740;37.402;2023-07-13T06:43:18;98493.94;;;17.88;62.35
61109;BME280;46995;55.740;37.402;2023-07-13T06:45:47;98436.72;;;17.36;62.47
61109;BME280;46995;55.740;37.402;2023-07-13T06:48:14;98508.47;;;17.65;62.66
61109;BME280;46995;55.740;37.402;2023-07-13T06:50:42;98501.91;;;17.61;62.54
61109;BME280;46995;55.740;37.402;2023-07-13T06:53:09;98456.44;;;17.35;62.27
61109;BME280;46995;55.740;37.402;2023-07-13T06:55:35;98458.88;;;17.30;62.15
61109;BME280;46995;55.740;37.402;2023-07-13T06:58:01;98454.97;;;17.26;61.54
61109;BME280;46995;55.740;37.402;2023-07-13T07:00:27;98467.50;;;17.38;62.05
61109;BME280;46995;55.740;37.402;2023-07-13T07:02:53;98460.94;;;17.34;61.82
61109;BME280;46995;55.740;37.402;2023-07-13T07:05:19;98469.34;;;17.38;61.03
61109;BME280;46995;55.740;37.402;2023-07-13T07:07:51;98448.63;;;17.27;61.27
61109;BME280;46995;55.740;37.402;2023-07-13T07:10:17;98494.28;;;17.58;61.31
61109;BME280;46995;55.740;37.402;2023-07-13T07:12:45;98444.53;;;17.31;61.60
61109;BME280;46995;55.740;37.402;2023-07-13T07:15:12;98480.47;;;17.48;61.46
61109;BME280;46995;55.740;37.402;2023-07-13T07:17:38;98469.19;;;17.46;61.78
61109;BME280;46995;55.740;37.402;2023-07-13T07:20:05;98436.69;;;17.23;61.73
61109;BME280;46995;55.740;37.402;2023-07-13T07:22:32;98498.59;;;17.59;61.84
61109;BME280;46995;55.740;37.402;2023-07-13T07:24:58;98470.59;;;17.35;61.99
61109;BME280;46995;55.740;37.402;2023-07-13T07:27:24;98504.94;;;17.52;61.81
61109;BME280;46995;55.740;37.402;2023-07-13T07:29:50;98466.25;;;17.28;61.64
61109;BME280;46995;55.740;37.402;2023-07-13T07:32:16;98444.81;;;17.02;61.78
61109;BME280;46995;55.740;37.402;2023-07-13T07:34:42;98463.34;;;17.10;62.47
61109;BME280;46995;55.740;37.402;2023-07-13T07:37:13;98485.59;;;17.36;62.05
61109;BME280;46995;55.740;37.402;2023-07-13T07:39:39;98472.59;;;17.20;62.07
61109;BME280;46995;55.740;37.402;2023-07-13T07:42:06;98466.03;;;17.16;62.36
61109;BME280;46995;55.740;37.402;2023-07-13T07:44:32;98451.38;;;16.99;62.26
61109;BME280;46995;55.740;37.402;2023-07-13T07:46:59;98465.69;;;16.91;62.69
61109;BME280;46995;55.740;37.402;2023-07-13T07:49:26;98467.81;;;17.03;63.02
61109;BME280;46995;55.740;37.402;2023-07-13T07:51:52;98467.59;;;16.98;63.14
61109;BME280;46995;55.740;37.402;2023-07-13T07:54:18;98462.03;;;16.92;63.05
61109;BME280;46995;55.740;37.402;2023-07-13T07:56:44;98499.91;;;17.22;63.21
61109;BME280;46995;55.740;37.402;2023-07-13T07:59:10;98476.03;;;17.08;62.86
61109;BME280;46995;55.740;37.402;2023-07-13T08:01:37;98507.78;;;17.37;63.02
61109;BME280;46995;55.740;37.402;2023-07-13T08:04:09;98426.72;;;16.84;63.25
61109;BME280;46995;55.740;37.402;2023-07-13T08:07:31;98413.56;;;16.82;63.04
61109;BME280;46995;55.740;37.402;2023-07-13T08:10:43;98464.94;;;17.04;62.94
61109;BME280;46995;55.740;37.402;2023-07-13T08:13:20;98466.97;;;16.96;62.45
61109;BME280;46995;55.740;37.402;2023-07-13T08:16:04;98475.63;;;17.04;62.62
61109;BME280;46995;55.740;37.402;2023-07-13T08:18:33;98522.94;;;17.30;62.90
61109;BME280;46995;55.740;37.402;2023-07-13T08:21:06;98509.66;;;17.02;63.58
61109;BME280;46995;55.740;37.402;2023-07-13T08:23:32;98491.91;;;16.81;63.70
61109;BME280;46995;55.740;37.402;2023-07-13T08:25:58;98507.38;;;16.92;64.32
61109;BME280;46995;55.740;37.402;2023-07-13T08:28:28;98523.72;;;16.83;64.78
61109;BME280;46995;55.740;37.402;2023-07-13T08:30:54;98536.63;;;16.79;64.94
61109;BME280;46995;55.740;37.402;2023-07-13T08:33:21;98483.91;;;16.47;65.87
61109;BME280;46995;55.740;37.402;2023-07-13T08:35:50;98490.53;;;16.58;65.74
61109;BME280;46995;55.740;37.402;2023-07-13T08:38:18;98520.81;;;16.78;65.91
61109;BME280;46995;55.740;37.402;2023-07-13T08:40:45;98485.16;;;16.51;66.78
61109;BME280;46995;55.740;37.402;2023-07-13T08:43:34;98504.94;;;16.63;67.38
61109;BME280;46995;55.740;37.402;2023-07-13T08:46:15;98496.69;;;16.58;68.28
61109;BME280;46995;55.740;37.402;2023-07-13T08:49:06;98533.34;;;16.77;67.75
61109;BME280;46995;55.740;37.402;2023-07-13T08:51:39;98508.50;;;16.49;68.57
61109;BME280;46995;55.740;37.402;2023-07-13T08:54:21;98531.22;;;16.66;68.86
61109;BME280;46995;55.740;37.402;2023-07-13T08:56:50;98516.06;;;16.45;69.29
61109;BME280;46995;55.740;37.402;2023-07-13T08:59:24;98494.44;;;16.34;69.89
61109;BME280;46995;55.740;37.402;2023-07-13T09:04:29;98480.88;;;16.29;70.07
61109;BME280;46995;55.740;37.402;2023-07-13T09:07:14;98542.66;;;16.60;70.97
61109;BME280;46995;55.740;37.402;2023-07-13T09:12:38;98534.00;;;16.58;70.76
61109;BME280;46995;55.740;37.402;2023-07-13T09:18:26;98533.75;;;16.53;71.54
61109;BME280;46995;55.740;37.402;2023-07-13T09:20:57;98486.13;;;16.16;71.45
61109;BME280;46995;55.740;37.402;2023-07-13T09:23:27;98499.41;;;16.37;71.76
61109;BME280;46995;55.740;37.402;2023-07-13T09:26:02;98514.22;;;16.46;72.08
61109;BME280;46995;55.740;37.402;2023-07-13T09:28:35;98561.75;;;16.64;72.13
61109;BME280;46995;55.740;37.402;2023-07-13T09:33:31;98508.59;;;16.06;72.84
61109;BME280;46995;55.740;37.402;2023-07-13T09:35:59;98520.06;;;16.07;73.07
61109;BME280;46995;55.740;37.402;2023-07-13T09:38:27;98568.63;;;16.30;73.95
61109;BME280;46995;55.740;37.402;2023-07-13T09:41:26;98571.97;;;16.39;74.83
61109;BME280;46995;55.740;37.402;2023-07-13T09:44:10;98532.91;;;16.25;74.26
61109;BME280;46995;55.740;37.402;2023-07-13T09:46:39;98552.72;;;16.43;73.94
61109;BME280;46995;55.740;37.402;2023-07-13T09:49:09;98510.72;;;16.18;74.33
61109;BME280;46995;55.740;37.402;2023-07-13T09:51:37;98526.53;;;16.19;74.29
61109;BME280;46995;55.740;37.402;2023-07-13T09:54:03;98504.03;;;16.00;74.68
61109;BME280;46995;55.740;37.402;2023-07-13T09:56:29;98569.06;;;16.34;74.81
61109;BME280;46995;55.740;37.402;2023-07-13T09:58:56;98535.41;;;16.05;75.11
61109;BME280;46995;55.740;37.402;2023-07-13T10:01:35;98571.44;;;16.22;76.56
61109;BME280;46995;55.740;37.402;2023-07-13T10:04:01;98492.69;;;15.71;75.13
61109;BME280;46995;55.740;37.402;2023-07-13T10:06:27;98560.56;;;16.02;75.82
61109;BME280;46995;55.740;37.402;2023-07-13T10:08:56;98523.03;;;15.76;75.76
61109;BME280;46995;55.740;37.402;2023-07-13T10:11:34;98530.03;;;15.77;76.70
61109;BME280;46995;55.740;37.402;2023-07-13T10:14:10;98528.25;;;15.63;76.46
61109;BME280;46995;55.740;37.402;2023-07-13T10:16:37;98561.13;;;15.77;75.93
61109;BME280;46995;55.740;37.402;2023-07-13T10:21:49;98514.69;;;15.43;76.84
61109;BME280;46995;55.740;37.402;2023-07-13T10:24:27;98536.84;;;15.50;76.73
61109;BME280;46995;55.740;37.402;2023-07-13T10:27:00;98518.53;;;15.41;76.71
61109;BME280;46995;55.740;37.402;2023-07-13T10:29:28;98512.78;;;15.37;76.99
61109;BME280;46995;55.740;37.402;2023-07-13T10:31:55;98566.78;;;15.67;76.50
61109;BME280;46995;55.740;37.402;2023-07-13T10:34:23;98535.63;;;15.32;77.19
61109;BME280;46995;55.740;37.402;2023-07-13T10:36:49;98515.47;;;15.22;77.09
61109;BME280;46995;55.740;37.402;2023-07-13T10:39:20;98540.78;;;15.33;78.09
61109;BME280;46995;55.740;37.402;2023-07-13T10:41:54;98570.38;;;15.45;78.27
61109;BME280;46995;55.740;37.402;2023-07-13T10:44:24;98594.13;;;15.61;78.04
61109;BME280;46995;55.740;37.402;2023-07-13T10:46:58;98584.44;;;15.53;78.78
61109;BME280;46995;55.740;37.402;2023-07-13T10:49:28;98546.63;;;15.28;78.20
61109;BME280;46995;55.740;37.402;2023-07-13T10:51:54;98549.78;;;15.17;78.33
61109;BME280;46995;55.740;37.402;2023-07-13T10:54:27;98590.28;;;15.49;79.21
61109;BME280;46995;55.740;37.402;2023-07-13T10:57:16;98532.66;;;15.05;79.79
61109;BME280;46995;55.740;37.402;2023-07-13T11:00:30;98542.81;;;15.16;79.41
61109;BME280;46995;55.740;37.402;2023-07-13T11:02:32;98579.09;;;15.39;79.22
61109;BME280;46995;55.740;37.402;2023-07-13T11:04:58;98530.72;;;14.99;79.49
61109;BME280;46995;55.740;37.402;2023-07-13T11:07:29;98533.25;;;15.07;79.91
61109;BME280;46995;55.740;37.402;2023-07-13T11:10:03;98562.16;;;15.25;79.65
61109;BME280;46995;55.740;37.402;2023-07-13T11:12:50;98535.84;;;15.15;80.34
61109;BME280;46995;55.740;37.402;2023-07-13T11:15:30;98573.03;;;15.45;80.31
61109;BME280;46995;55.740;37.402;2023-07-13T11:17:56;98535.09;;;15.21;79.47
61109;BME280;46995;55.740;37.402;2023-07-13T11:20:35;98531.78;;;15.19;79.54
61109;BME280;46995;55.740;37.402;2023-07-13T11:25:43;98528.94;;;15.21;79.17
61109;BME280;46995;55.740;37.402;2023-07-13T11:28:15;98574.63;;;15.54;79.58
61109;BME280;46995;55.740;37.402;2023-07-13T11:33:25;98522.94;;;15.34;78.93
61109;BME280;46995;55.740;37.402;2023-07-13T11:36:03;98523.78;;;15.34;79.13
61109;BME280;46995;55.740;37.402;2023-07-13T11:38:38;98556.03;;;15.60;79.14
61109;BME280;46995;55.740;37.402;2023-07-13T11:41:16;98512.50;;;15.32;78.95
61109;BME280;46995;55.740;37.402;2023-07-13T11:43:44;98516.34;;;15.30;78.49
61109;BME280;46995;55.740;37.402;2023-07-13T11:46:21;98562.19;;;15.61;78.45
61109;BME280;46995;55.740;37.402;2023-07-13T11:48:49;98536.91;;;15.36;78.71
61109;BME280;46995;55.740;37.402;2023-07-13T11:51:17;98565.41;;;15.56;78.83
61109;BME280;46995;55.740;37.402;2023-07-13T11:53:46;98512.91;;;15.14;78.79
61109;BME280;46995;55.740;37.402;2023-07-13T11:56:13;98513.72;;;15.15;78.80
61109;BME280;46995;55.740;37.402;2023-07-13T11:58:40;98575.13;;;15.49;79.16
61109;BME280;46995;55.740;37.402;2023-07-13T12:01:20;98514.28;;;15.10;79.68
61109;BME280;46995;55.740;37.402;2023-07-13T12:03:48;98531.91;;;15.11;79.63
61109;BME280;46995;55.740;37.402;2023-07-13T12:06:25;98572.59;;;15.41;79.88
61109;BME280;46995;55.740;37.402;2023-07-13T12:08:56;98510.56;;;14.90;80.43
61109;BME280;46995;55.740;37.402;2023-07-13T12:11:21;98526.41;;;14.98;80.18
61109;BME280;46995;55.740;37.402;2023-07-13T12:13:47;98578.94;;;15.25;79.84
61109;BME280;46995;55.740;37.402;2023-07-13T12:16:29;98548.69;;;15.12;80.44
61109;BME280;46995;55.740;37.402;2023-07-13T12:18:56;98538.59;;;15.07;80.18
61109;BME280;46995;55.740;37.402;2023-07-13T12:21:30;98543.91;;;15.07;80.12
61109;BME280;46995;55.740;37.402;2023-07-13T12:23:57;98545.56;;;15.08;80.14
61109;BME280;46995;55.740;37.402;2023-07-13T12:26:23;98512.28;;;14.98;80.25
61109;BME280;46995;55.740;37.402;2023-07-13T12:28:52;98525.94;;;15.09;80.51
61109;BME280;46995;55.740;37.402;2023-07-13T12:31:31;98490.28;;;14.89;80.49
61109;BME280;46995;55.740;37.402;2023-07-13T12:34:06;98496.25;;;14.91;80.90
61109;BME280;46995;55.740;37.402;2023-07-13T12:36:34;98556.25;;;15.30;80.91
61109;BME280;46995;55.740;37.402;2023-07-13T12:39:11;98499.53;;;14.93;80.61
61109;BME280;46995;55.740;37.402;2023-07-13T12:41:38;98557.28;;;15.28;80.39
61109;BME280;46995;55.740;37.402;2023-07-13T12:44:09;98482.69;;;14.86;80.55
61109;BME280;46995;55.740;37.402;2023-07-13T12:46:37;98496.31;;;14.98;80.43
61109;BME280;46995;55.740;37.402;2023-07-13T12:49:06;98482.31;;;14.89;80.72
61109;BME280;46995;55.740;37.402;2023-07-13T12:51:32;98493.03;;;14.96;80.33
61109;BME280;46995;55.740;37.402;2023-07-13T12:54:18;98547.94;;;15.33;81.27
61109;BME280;46995;55.740;37.402;2023-07-13T12:56:49;98533.63;;;15.19;81.10
61109;BME280;46995;55.740;37.402;2023-07-13T12:59:22;98553.59;;;15.30;81.35
61109;BME280;46995;55.740;37.402;2023-07-13T13:01:50;98503.94;;;15.01;81.29
61109;BME280;46995;55.740;37.402;2023-07-13T13:04:16;98554.97;;;15.40;81.11
61109;BME280;46995;55.740;37.402;2023-07-13T13:06:45;98526.47;;;15.19;80.43
61109;BME280;46995;55.740;37.402;2023-07-13T13:09:14;98517.69;;;15.04;80.81
61109;BME280;46995;55.740;37.402;2023-07-13T13:11:41;98514.84;;;15.06;80.84
61109;BME280;46995;55.740;37.402;2023-07-13T13:14:07;98505.97;;;14.99;80.65
61109;BME280;46995;55.740;37.402;2023-07-13T13:16:47;98535.00;;;15.15;80.98
61109;BME280;46995;55.740;37.402;2023-07-13T13:19:22;98551.41;;;15.18;80.97
61109;BME280;46995;55.740;37.402;2023-07-13T13:21:49;98524.13;;;14.95;80.96